createdAt,value
2022-12-01T00:01:21.297Z,95917.77
2022-12-01T00:03:48.349Z,95917.90
2022-12-01T00:06:20.406Z,95918.72
2022-12-01T00:09:25.742Z,95921.59
2022-12-01T00:11:53.978Z,95924.87
2022-12-01T00:14:20.734Z,95924.91
2022-12-01T00:16:47.646Z,95922.29
2022-12-01T00:19:14.596Z,95921.02
2022-12-01T00:21:41.333Z,95925.11
2022-12-01T00:24:10.007Z,95921.00
2022-12-01T00:26:38.425Z,95923.46
2022-12-01T00:29:05.893Z,95925.09
2022-12-01T00:31:33.376Z,95921.52
2022-12-01T00:34:00.643Z,95923.09
2022-12-01T00:36:27.486Z,95926.40
2022-12-01T00:38:55.800Z,95921.04
2022-12-01T00:41:24.601Z,95919.98
2022-12-01T00:43:51.689Z,95920.72
2022-12-01T00:46:19.944Z,95923.02
2022-12-01T00:48:47.501Z,95923.84
2022-12-01T00:51:14.316Z,95928.45
2022-12-01T00:53:41.078Z,95929.56
2022-12-01T00:56:07.774Z,95928.45
2022-12-01T00:58:34.553Z,95925.27
2022-12-01T01:01:01.835Z,95920.70
2022-12-01T01:03:30.067Z,95917.17
2022-12-01T01:06:08.177Z,95917.62
2022-12-01T01:08:35.926Z,95911.66
2022-12-01T01:11:04.547Z,95908.42
2022-12-01T01:13:31.906Z,95906.25
2022-12-01T01:16:14.277Z,95904.35
2022-12-01T01:18:41.212Z,95905.34
2022-12-01T01:21:12.132Z,95908.41
2022-12-01T01:23:39.260Z,95909.44
2022-12-01T01:26:13.041Z,95911.46
2022-12-01T01:28:41.077Z,95908.66
2022-12-01T01:31:13.391Z,95905.76
2022-12-01T01:33:40.739Z,95901.69
2022-12-01T01:36:08.451Z,95899.21
2022-12-01T01:38:35.859Z,95899.46
2022-12-01T01:41:04.490Z,95900.34
2022-12-01T01:43:49.337Z,95906.02
2022-12-01T01:46:21.657Z,95906.00
2022-12-01T01:49:08.249Z,95899.30
2022-12-01T01:51:40.670Z,95899.77
2022-12-01T01:54:19.786Z,95899.72
2022-12-01T01:56:49.715Z,95904.51
2022-12-01T01:59:23.746Z,95902.48
2022-12-01T02:01:59.866Z,95896.18
2022-12-01T02:04:28.405Z,95902.20
2022-12-01T02:06:55.345Z,95899.52
2022-12-01T02:09:22.067Z,95898.06
2022-12-01T02:12:12.082Z,95898.84
2022-12-01T02:15:06.168Z,95896.69
2022-12-01T02:18:09.256Z,95895.31
2022-12-01T02:21:13.421Z,95897.50
2022-12-01T02:24:17.653Z,95893.15
2022-12-01T02:26:53.905Z,95887.08
2022-12-01T02:29:51.898Z,95885.84
2022-12-01T02:32:30.124Z,95890.60
2022-12-01T02:34:56.948Z,95890.81
2022-12-01T02:37:33.066Z,95886.64
2022-12-01T02:40:19.925Z,95886.39
2022-12-01T02:43:01.644Z,95883.24
2022-12-01T02:45:52.048Z,95885.91
2022-12-01T02:48:31.205Z,95887.36
2022-12-01T02:51:06.891Z,95889.49
2022-12-01T02:53:34.092Z,95885.39
2022-12-01T02:56:04.577Z,95885.24
2022-12-01T02:58:31.337Z,95885.59
2022-12-01T03:01:17.738Z,95888.66
2022-12-01T03:04:21.301Z,95893.39
2022-12-01T03:07:06.331Z,95890.09
2022-12-01T03:09:49.044Z,95889.01
2022-12-01T03:12:28.639Z,95886.23
2022-12-01T03:15:02.939Z,95886.59
2022-12-01T03:17:44.340Z,95889.16
2022-12-01T03:20:36.960Z,95887.09
2022-12-01T03:23:28.167Z,95887.30
2022-12-01T03:25:57.320Z,95884.45
2022-12-01T03:28:30.359Z,95884.60
2022-12-01T03:31:03.717Z,95886.46
2022-12-01T03:33:37.987Z,95884.04
2022-12-01T03:36:20.145Z,95883.48
2022-12-01T03:38:54.398Z,95883.83
2022-12-01T03:41:29.276Z,95884.33
2022-12-01T03:44:05.585Z,95885.06
2022-12-01T03:46:46.863Z,95883.77
2022-12-01T03:49:16.492Z,95877.38
2022-12-01T03:52:02.719Z,95879.48
2022-12-01T03:54:44.774Z,95882.23
2022-12-01T03:57:18.228Z,95877.14
2022-12-01T03:59:45.668Z,95876.17
2022-12-01T04:02:12.998Z,95871.06
2022-12-01T04:04:39.789Z,95876.36
2022-12-01T04:07:06.596Z,95877.19
2022-12-01T04:09:33.317Z,95879.04
2022-12-01T04:12:18.749Z,95878.20
2022-12-01T04:14:45.504Z,95873.75
2022-12-01T04:17:12.381Z,95872.84
2022-12-01T04:19:39.166Z,95875.50
2022-12-01T04:22:05.947Z,95874.60
2022-12-01T04:24:32.781Z,95876.98
2022-12-01T04:26:59.537Z,95878.14
2022-12-01T04:29:26.270Z,95879.39
2022-12-01T04:31:53.233Z,95877.24
2022-12-01T04:34:20.105Z,95872.67
2022-12-01T04:36:47.205Z,95876.57
2022-12-01T04:39:14.255Z,95876.68
2022-12-01T04:41:40.981Z,95878.19
2022-12-01T04:44:10.133Z,95878.47
2022-12-01T04:46:37.400Z,95881.19
2022-12-01T04:49:05.018Z,95883.80
2022-12-01T04:51:31.895Z,95885.73
2022-12-01T04:53:58.887Z,95885.45
2022-12-01T04:56:25.695Z,95886.20
2022-12-01T04:58:52.564Z,95886.04
2022-12-01T05:01:19.560Z,95884.89
2022-12-01T05:03:50.450Z,95882.35
2022-12-01T05:06:26.325Z,95882.41
2022-12-01T05:08:58.492Z,95879.52
2022-12-01T05:11:26.644Z,95878.55
2022-12-01T05:13:53.370Z,95875.32
2022-12-01T05:16:25.903Z,95874.30
2022-12-01T05:19:14.562Z,95880.95
2022-12-01T05:21:42.725Z,95877.48
2022-12-01T05:24:11.355Z,95874.19
2022-12-01T05:26:38.555Z,95879.64
2022-12-01T05:29:05.572Z,95887.02
2022-12-01T05:31:32.727Z,95882.61
2022-12-01T05:33:59.894Z,95883.31
2022-12-01T05:36:27.029Z,95885.40
2022-12-01T05:38:54.160Z,95883.91
2022-12-01T05:41:21.222Z,95884.45
2022-12-01T05:43:47.996Z,95883.19
2022-12-01T05:46:15.055Z,95886.41
2022-12-01T05:48:42.431Z,95888.39
2022-12-01T05:51:15.467Z,95885.64
2022-12-01T05:53:43.102Z,95880.13
2022-12-01T05:56:10.117Z,95879.45
2022-12-01T05:58:37.202Z,95882.39
2022-12-01T06:01:04.175Z,95880.46
2022-12-01T06:03:31.185Z,95881.10
2022-12-01T06:05:57.835Z,95879.41
2022-12-01T06:08:24.684Z,95878.58
2022-12-01T06:10:51.426Z,95871.92
2022-12-01T06:13:18.154Z,95875.05
2022-12-01T06:15:44.937Z,95872.20
2022-12-01T06:18:11.809Z,95871.65
2022-12-01T06:20:38.563Z,95868.76
2022-12-01T06:23:05.464Z,95869.11
2022-12-01T06:25:32.169Z,95867.13
2022-12-01T06:27:59.128Z,95869.02
2022-12-01T06:30:26.156Z,95863.27
2022-12-01T06:32:53.031Z,95862.80
2022-12-01T06:35:19.901Z,95860.18
2022-12-01T06:37:46.788Z,95864.59
2022-12-01T06:40:13.955Z,95865.59
2022-12-01T06:42:40.818Z,95858.02
2022-12-01T06:45:10.177Z,95861.32
2022-12-01T06:47:37.606Z,95860.67
2022-12-01T06:50:07.631Z,95858.54
2022-12-01T06:52:35.886Z,95856.59
2022-12-01T06:55:03.882Z,95851.12
2022-12-01T06:57:31.353Z,95852.83
2022-12-01T06:59:58.200Z,95847.48
2022-12-01T07:02:25.472Z,95843.15
2022-12-01T07:04:52.298Z,95841.33
2022-12-01T07:07:19.058Z,95839.41
2022-12-01T07:09:45.955Z,95836.98
2022-12-01T07:12:12.794Z,95833.91
2022-12-01T07:14:43.120Z,95834.26
2022-12-01T07:17:09.964Z,95832.13
2022-12-01T07:19:36.989Z,95831.70
2022-12-01T07:22:03.801Z,95831.41
2022-12-01T07:24:30.811Z,95832.45
2022-12-01T07:26:57.616Z,95828.20
2022-12-01T07:29:24.372Z,95830.04
2022-12-01T07:31:51.125Z,95829.98
2022-12-01T07:34:17.874Z,95825.72
2022-12-01T07:36:44.748Z,95826.19
2022-12-01T07:39:11.469Z,95821.58
2022-12-01T07:41:38.385Z,95817.71
2022-12-01T07:44:05.142Z,95817.49
2022-12-01T07:46:32.174Z,95813.69
2022-12-01T07:48:59.791Z,95812.04
2022-12-01T07:51:28.464Z,95813.48
2022-12-01T07:53:55.474Z,95806.20
2022-12-01T07:56:22.716Z,95805.63
2022-12-01T07:58:49.810Z,95804.09
2022-12-01T08:01:21.795Z,95802.80
2022-12-01T08:03:51.295Z,95798.61
2022-12-01T08:06:19.157Z,95796.91
2022-12-01T08:08:47.023Z,95796.96
2022-12-01T08:11:31.198Z,95793.12
2022-12-01T08:13:58.093Z,95787.81
2022-12-01T08:16:25.700Z,95788.80
2022-12-01T08:18:53.189Z,95783.85
2022-12-01T08:21:23.489Z,95783.98
2022-12-01T08:23:54.931Z,95769.98
2022-12-01T08:26:23.627Z,95767.89
2022-12-01T08:28:57.434Z,95771.89
2022-12-01T08:31:26.194Z,95772.77
2022-12-01T08:33:54.179Z,95765.52
2022-12-01T08:36:21.948Z,95765.01
2022-12-01T08:38:52.085Z,95768.20
2022-12-01T08:41:20.201Z,95758.86
2022-12-01T08:43:57.914Z,95762.25
2022-12-01T08:46:31.703Z,95760.92
2022-12-01T08:48:58.877Z,95761.02
2022-12-01T08:51:26.372Z,95760.21
2022-12-01T08:53:55.475Z,95756.64
2022-12-01T08:56:35.824Z,95752.98
2022-12-01T08:59:03.410Z,95747.40
2022-12-01T09:01:32.245Z,95751.73
2022-12-01T09:04:10.185Z,95752.22
2022-12-01T09:06:42.318Z,95747.93
2022-12-01T09:09:11.290Z,95745.98
2022-12-01T09:11:38.752Z,95739.35
2022-12-01T09:14:05.712Z,95738.63
2022-12-01T09:16:32.752Z,95737.92
2022-12-01T09:19:01.581Z,95735.61
2022-12-01T09:21:30.659Z,95729.51
2022-12-01T09:23:58.727Z,95728.11
2022-12-01T09:26:26.152Z,95728.09
2022-12-01T09:29:05.820Z,95730.64
2022-12-01T09:31:33.596Z,95732.64
2022-12-01T09:34:06.064Z,95730.88
2022-12-01T09:36:35.302Z,95728.11
2022-12-01T09:39:03.026Z,95724.71
2022-12-01T09:41:35.182Z,95715.62
2022-12-01T09:44:33.737Z,95714.44
2022-12-01T09:47:26.786Z,95713.15
2022-12-01T09:49:59.942Z,95715.48
2022-12-01T09:52:33.118Z,95716.39
2022-12-01T09:55:00.739Z,95712.98
2022-12-01T09:57:34.646Z,95711.25
2022-12-01T10:00:18.229Z,95709.02
2022-12-01T10:03:02.565Z,95705.08
2022-12-01T10:06:18.565Z,95701.29
2022-12-01T10:08:38.850Z,95703.28
2022-12-01T10:11:23.983Z,95699.14
2022-12-01T10:13:51.237Z,95698.11
2022-12-01T10:16:26.043Z,95689.77
2022-12-01T10:19:00.987Z,95689.77
2022-12-01T10:21:46.587Z,95692.38
2022-12-01T10:24:20.943Z,95692.11
2022-12-01T10:27:02.802Z,95692.52
2022-12-01T10:29:46.399Z,95695.05
2022-12-01T10:32:32.142Z,95693.46
2022-12-01T10:34:58.789Z,95690.02
2022-12-01T10:37:28.262Z,95698.67
2022-12-01T10:39:57.204Z,95699.20
2022-12-01T10:42:39.105Z,95702.73
2022-12-01T10:45:15.205Z,95700.70
2022-12-01T10:48:18.143Z,95702.66
2022-12-01T10:50:56.924Z,95697.02
2022-12-01T10:53:23.815Z,95696.16
2022-12-01T10:56:04.291Z,95697.63
2022-12-01T10:58:41.177Z,95698.58
2022-12-01T11:01:16.405Z,95699.98
2022-12-01T11:03:43.641Z,95700.69
2022-12-01T11:06:13.094Z,95704.19
2022-12-01T11:08:52.424Z,95706.32
2022-12-01T11:11:46.059Z,95698.63
2022-12-01T11:14:23.341Z,95694.21
2022-12-01T11:16:53.484Z,95688.29
2022-12-01T11:19:33.569Z,95683.42
2022-12-01T11:22:28.730Z,95676.38
2022-12-01T11:25:00.186Z,95674.85
2022-12-01T11:27:50.429Z,95668.26
2022-12-01T11:30:24.196Z,95671.07
2022-12-01T11:32:54.301Z,95665.02
2022-12-01T11:35:24.462Z,95668.24
2022-12-01T11:40:57.564Z,95661.96
2022-12-01T11:43:38.356Z,95662.70
2022-12-01T11:46:07.559Z,95666.84
2022-12-01T11:48:35.957Z,95667.58
2022-12-01T11:51:08.747Z,95674.50
2022-12-01T11:53:38.503Z,95675.23
2022-12-01T11:56:28.164Z,95678.36
2022-12-01T11:59:02.959Z,95683.15
2022-12-01T12:02:04.112Z,95680.58
2022-12-01T12:04:54.867Z,95681.95
2022-12-01T12:07:39.023Z,95685.08
2022-12-01T12:10:34.033Z,95686.79
2022-12-01T12:13:16.333Z,95691.01
2022-12-01T12:16:10.353Z,95686.80
2022-12-01T12:19:01.674Z,95696.17
2022-12-01T12:21:40.798Z,95693.51
2022-12-01T12:24:07.569Z,95691.31
2022-12-01T12:27:12.157Z,95690.82
2022-12-01T12:29:59.678Z,95693.89
2022-12-01T12:32:26.469Z,95690.55
2022-12-01T12:35:27.862Z,95686.69
2022-12-01T12:38:22.223Z,95686.02
2022-12-01T12:41:23.102Z,95684.55
2022-12-01T12:44:01.910Z,95687.58
2022-12-01T12:46:37.489Z,95688.31
2022-12-01T12:49:43.474Z,95684.81
2022-12-01T12:52:16.939Z,95686.64
2022-12-01T12:54:51.098Z,95689.80
2022-12-01T12:57:29.958Z,95687.80
2022-12-01T13:00:11.845Z,95689.60
2022-12-01T13:02:47.976Z,95689.85
2022-12-01T13:05:38.363Z,95686.62
2022-12-01T13:08:18.960Z,95691.67
2022-12-01T13:10:45.770Z,95692.98
2022-12-01T13:13:23.610Z,95696.61
2022-12-01T13:15:53.533Z,95699.38
2022-12-01T13:18:34.195Z,95701.63
2022-12-01T13:21:03.875Z,95697.83
2022-12-01T13:23:37.097Z,95699.54
2022-12-01T13:26:07.946Z,95697.30
2022-12-01T13:28:40.717Z,95697.48
2022-12-01T13:31:13.622Z,95697.13
2022-12-01T13:34:02.413Z,95699.26
2022-12-01T13:36:46.583Z,95699.52
2022-12-01T13:39:27.271Z,95696.94
2022-12-01T13:42:06.213Z,95697.81
2022-12-01T13:44:33.065Z,95701.70
2022-12-01T13:47:24.352Z,95701.84
2022-12-01T13:49:52.727Z,95700.31
2022-12-01T13:52:22.387Z,95698.83
2022-12-01T13:55:07.514Z,95701.23
2022-12-01T13:57:43.654Z,95701.44
2022-12-01T14:00:24.816Z,95699.49
2022-12-01T14:03:18.671Z,95694.95
2022-12-01T14:06:05.070Z,95703.04
2022-12-01T14:09:04.117Z,95705.25
2022-12-01T14:11:33.178Z,95710.82
2022-12-01T14:14:11.022Z,95708.10
2022-12-01T14:16:58.624Z,95708.23
2022-12-01T14:19:46.477Z,95706.23
2022-12-01T14:22:36.617Z,95707.09
2022-12-01T14:25:29.922Z,95706.20
2022-12-01T14:28:01.095Z,95713.25
2022-12-01T14:30:45.940Z,95716.36
2022-12-01T14:33:45.907Z,95719.27
2022-12-01T14:36:18.574Z,95715.98
2022-12-01T14:38:46.684Z,95718.44
2022-12-01T14:41:24.398Z,95720.02
2022-12-01T14:44:03.493Z,95721.39
2022-12-01T14:46:59.093Z,95721.96
2022-12-01T14:49:32.939Z,95719.02
2022-12-01T14:52:06.777Z,95718.86
2022-12-01T14:54:43.310Z,95723.04
2022-12-01T14:57:16.537Z,95725.70
2022-12-01T14:59:44.280Z,95725.71
2022-12-01T15:02:11.991Z,95727.88
2022-12-01T15:05:15.341Z,95728.40
2022-12-01T15:07:47.038Z,95728.86
2022-12-01T15:10:34.512Z,95732.13
2022-12-01T15:13:22.278Z,95738.50
2022-12-01T15:15:57.665Z,95735.84
2022-12-01T15:18:36.206Z,95735.34
2022-12-01T15:21:06.436Z,95735.81
2022-12-01T15:23:33.646Z,95740.27
2022-12-01T15:26:00.421Z,95739.41
2022-12-01T15:28:31.736Z,95737.89
2022-12-01T15:31:00.081Z,95732.28
2022-12-01T15:33:36.566Z,95736.21
2022-12-01T15:36:06.707Z,95734.09
2022-12-01T15:38:37.283Z,95740.05
2022-12-01T15:43:56.155Z,95740.02
2022-12-01T15:46:32.167Z,95742.38
2022-12-01T15:49:32.209Z,95744.17
2022-12-01T15:52:11.805Z,95748.67
2022-12-01T15:54:39.304Z,95748.02
2022-12-01T15:57:06.701Z,95749.19
2022-12-01T15:59:44.017Z,95749.27
2022-12-01T16:02:20.454Z,95754.69
2022-12-01T16:04:49.208Z,95751.78
2022-12-01T16:07:16.374Z,95752.70
2022-12-01T16:09:56.292Z,95757.23
2022-12-01T16:12:28.574Z,95753.46
2022-12-01T16:15:18.015Z,95758.46
2022-12-01T16:17:50.910Z,95759.06
2022-12-01T16:20:38.788Z,95759.27
2022-12-01T16:23:18.787Z,95763.04
2022-12-01T16:25:47.987Z,95771.08
2022-12-01T16:28:24.431Z,95767.16
2022-12-01T16:30:52.234Z,95768.70
2022-12-01T16:33:23.470Z,95772.33
2022-12-01T16:35:51.749Z,95770.66
2022-12-01T16:38:24.162Z,95768.24
2022-12-01T16:40:53.964Z,95766.85
2022-12-01T16:43:23.383Z,95766.58
2022-12-01T16:45:57.358Z,95765.63
2022-12-01T16:48:24.264Z,95766.73
2022-12-01T16:50:52.733Z,95763.48
2022-12-01T16:53:20.893Z,95765.16
2022-12-01T16:55:52.625Z,95764.27
2022-12-01T16:58:19.794Z,95765.54
2022-12-01T17:00:52.048Z,95769.08
2022-12-01T17:03:24.193Z,95764.30
2022-12-01T17:05:52.413Z,95769.08
2022-12-01T17:08:20.351Z,95769.88
2022-12-01T17:10:50.520Z,95772.23
2022-12-01T17:13:19.378Z,95770.48
2022-12-01T17:15:49.136Z,95772.01
2022-12-01T17:18:18.433Z,95772.13
2022-12-01T17:20:56.980Z,95770.54
2022-12-01T17:23:23.855Z,95768.45
2022-12-01T17:25:50.619Z,95768.70
2022-12-01T17:28:17.620Z,95773.05
2022-12-01T17:30:44.449Z,95772.10
2022-12-01T17:33:11.845Z,95774.64
2022-12-01T17:35:38.980Z,95770.17
2022-12-01T17:38:06.299Z,95772.40
2022-12-01T17:40:33.104Z,95778.88
2022-12-01T17:43:00.350Z,95777.07
2022-12-01T17:45:27.073Z,95776.71
2022-12-01T17:47:54.719Z,95776.25
2022-12-01T17:50:21.423Z,95776.17
2022-12-01T17:52:48.206Z,95780.73
2022-12-01T17:55:15.160Z,95783.48
2022-12-01T17:57:41.946Z,95779.77
2022-12-01T18:00:09.955Z,95781.30
2022-12-01T18:02:38.080Z,95779.42
2022-12-01T18:05:05.684Z,95779.27
2022-12-01T18:07:32.476Z,95777.08
2022-12-01T18:09:59.370Z,95776.17
2022-12-01T18:12:26.129Z,95774.77
2022-12-01T18:14:52.913Z,95775.31
2022-12-01T18:17:19.740Z,95776.66
2022-12-01T18:19:46.464Z,95772.56
2022-12-01T18:22:13.164Z,95768.44
2022-12-01T18:24:40.230Z,95768.00
2022-12-01T18:27:06.953Z,95768.98
2022-12-01T18:29:34.374Z,95774.00
2022-12-01T18:32:01.092Z,95772.09
2022-12-01T18:34:31.253Z,95767.99
2022-12-01T18:36:59.920Z,95769.80
2022-12-01T18:39:26.737Z,95769.33
2022-12-01T18:41:53.900Z,95770.80
2022-12-01T18:44:20.633Z,95769.62
2022-12-01T18:46:47.462Z,95772.30
2022-12-01T18:49:14.682Z,95769.84
2022-12-01T18:51:41.514Z,95770.17
2022-12-01T18:54:12.499Z,95770.83
2022-12-01T18:56:39.368Z,95773.63
2022-12-01T18:59:09.593Z,95773.48
2022-12-01T19:01:40.199Z,95775.13
2022-12-01T19:04:08.120Z,95775.26
2022-12-01T19:06:37.505Z,95773.97
2022-12-01T19:09:06.282Z,95777.00
2022-12-01T19:11:33.160Z,95775.26
2022-12-01T19:14:00.229Z,95778.09
2022-12-01T19:16:27.400Z,95777.80
2022-12-01T19:18:54.473Z,95775.12
2022-12-01T19:21:21.503Z,95771.25
2022-12-01T19:23:49.500Z,95773.96
2022-12-01T19:26:19.514Z,95774.07
2022-12-01T19:28:47.258Z,95773.55
2022-12-01T19:31:20.444Z,95774.60
2022-12-01T19:33:47.166Z,95775.63
2022-12-01T19:36:17.447Z,95779.90
2022-12-01T19:38:44.580Z,95781.99
2022-12-01T19:41:12.529Z,95774.11
2022-12-01T19:43:42.196Z,95778.33
2022-12-01T19:46:19.119Z,95778.86
2022-12-01T19:48:47.077Z,95778.49
2022-12-01T19:51:23.946Z,95779.56
2022-12-01T19:53:52.168Z,95778.29
2022-12-01T19:56:19.873Z,95779.59
2022-12-01T19:58:46.717Z,95779.05
2022-12-01T20:01:15.753Z,95776.51
2022-12-01T20:03:46.406Z,95773.98
2022-12-01T20:06:16.179Z,95775.58
2022-12-01T20:08:44.240Z,95777.73
2022-12-01T20:11:12.304Z,95778.61
2022-12-01T20:13:41.291Z,95773.89
2022-12-01T20:16:14.631Z,95777.50
2022-12-01T20:18:41.987Z,95776.10
2022-12-01T20:21:15.971Z,95776.02
2022-12-01T20:23:44.456Z,95776.34
2022-12-01T20:26:11.593Z,95774.55
2022-12-01T20:28:39.750Z,95774.20
2022-12-01T20:31:16.370Z,95774.40
2022-12-01T20:33:43.180Z,95774.59
2022-12-01T20:36:10.862Z,95771.12
2022-12-01T20:38:38.120Z,95764.64
2022-12-01T20:41:05.246Z,95762.45
2022-12-01T20:43:32.983Z,95763.73
2022-12-01T20:46:00.950Z,95765.20
2022-12-01T20:48:28.289Z,95768.73
2022-12-01T20:50:55.192Z,95774.18
2022-12-01T20:53:22.292Z,95774.70
2022-12-01T20:55:49.165Z,95772.38
2022-12-01T20:58:15.932Z,95778.65
2022-12-01T21:00:45.625Z,95780.04
2022-12-01T21:03:13.600Z,95776.35
2022-12-01T21:05:43.434Z,95778.83
2022-12-01T21:08:12.491Z,95774.64
2022-12-01T21:10:44.284Z,95774.84
2022-12-01T21:13:37.054Z,95779.52
2022-12-01T21:16:09.584Z,95781.62
2022-12-01T21:19:01.110Z,95779.45
2022-12-01T21:21:30.951Z,95783.56
2022-12-01T21:24:09.753Z,95784.38
2022-12-01T21:26:38.262Z,95780.73
2022-12-01T21:29:24.307Z,95781.27
2022-12-01T21:31:54.263Z,95780.98
2022-12-01T21:34:23.742Z,95784.16
2022-12-01T21:36:53.529Z,95786.89
2022-12-01T21:39:22.924Z,95788.05
2022-12-01T21:41:52.700Z,95780.73
2022-12-01T21:44:35.729Z,95778.89
2022-12-01T21:47:30.565Z,95780.27
2022-12-01T21:49:59.240Z,95782.45
2022-12-01T21:52:32.688Z,95785.52
2022-12-01T21:55:32.762Z,95783.76
2022-12-01T21:57:59.797Z,95789.45
2022-12-01T22:00:26.768Z,95793.56
2022-12-01T22:03:08.983Z,95793.66
2022-12-01T22:05:37.383Z,95794.79
2022-12-01T22:08:39.437Z,95794.61
2022-12-01T22:11:18.105Z,95795.35
2022-12-01T22:14:15.156Z,95799.89
2022-12-01T22:16:44.552Z,95800.11
2022-12-01T22:19:14.252Z,95796.36
2022-12-01T22:21:44.824Z,95795.23
2022-12-01T22:24:38.588Z,95797.83
2022-12-01T22:27:26.091Z,95794.77
2022-12-01T22:30:01.693Z,95791.11
2022-12-01T22:32:34.548Z,95790.02
2022-12-01T22:35:29.083Z,95787.92
2022-12-01T22:38:00.705Z,95790.94
2022-12-01T22:40:38.288Z,95783.68
2022-12-01T22:43:17.256Z,95779.78
2022-12-01T22:45:48.513Z,95777.46
2022-12-01T22:48:27.915Z,95778.55
2022-12-01T22:50:56.168Z,95776.03
2022-12-01T22:53:29.714Z,95774.27
2022-12-01T22:56:00.204Z,95773.15
2022-12-01T22:58:34.462Z,95771.40
2022-12-01T23:01:31.489Z,95771.07
2022-12-01T23:04:30.570Z,95770.45
2022-12-01T23:06:58.839Z,95769.95
2022-12-01T23:09:45.038Z,95775.09
2022-12-01T23:12:26.537Z,95775.09
2022-12-01T23:15:16.666Z,95769.66
2022-12-01T23:17:43.412Z,95769.73
2022-12-01T23:20:10.137Z,95765.55
2022-12-01T23:22:37.916Z,95770.24
2022-12-01T23:25:18.286Z,95771.13
2022-12-01T23:27:47.679Z,95768.19
2022-12-01T23:30:16.872Z,95766.46
2022-12-01T23:32:45.753Z,95768.29
2022-12-01T23:35:17.478Z,95776.16
2022-12-01T23:37:47.624Z,95780.89
2022-12-01T23:40:28.553Z,95783.61
2022-12-01T23:43:02.962Z,95789.33
2022-12-01T23:45:31.588Z,95784.98
2022-12-01T23:47:58.326Z,95784.85
2022-12-01T23:50:26.274Z,95782.85
2022-12-01T23:52:53.396Z,95779.92
2022-12-01T23:55:26.916Z,95778.14
2022-12-01T23:57:54.790Z,95782.10
